createdAt,value
2022-08-11T00:02:36.786Z,24.40
2022-08-11T00:06:01.492Z,24.30
2022-08-11T00:09:40.389Z,24.30
2022-08-11T00:13:08.577Z,24.20
2022-08-11T00:16:37.065Z,24.20
2022-08-11T00:20:16.325Z,24.10
2022-08-11T00:23:48.324Z,24.00
2022-08-11T00:27:14.330Z,24.00
2022-08-11T00:30:42.679Z,24.00
2022-08-11T00:34:13.322Z,23.90
2022-08-11T00:37:40.070Z,23.90
2022-08-11T00:41:21.302Z,23.90
2022-08-11T00:45:03.569Z,23.90
2022-08-11T00:48:50.625Z,23.80
2022-08-11T00:52:40.374Z,23.80
2022-08-11T00:56:56.673Z,23.70
2022-08-11T01:00:23.243Z,23.70
2022-08-11T01:04:18.019Z,23.70
2022-08-11T01:08:31.077Z,23.70
2022-08-11T01:12:41.358Z,23.70
2022-08-11T01:16:54.900Z,23.70
2022-08-11T01:21:07.870Z,23.70
2022-08-11T01:25:20.078Z,23.60
2022-08-11T01:29:41.615Z,23.50
2022-08-11T01:34:28.433Z,23.40
2022-08-11T01:38:49.054Z,23.40
2022-08-11T01:43:20.734Z,23.30
2022-08-11T01:46:51.373Z,23.20
2022-08-11T01:50:25.142Z,23.10
2022-08-11T01:54:00.789Z,23.10
2022-08-11T01:57:39.766Z,23.00
2022-08-11T02:01:35.485Z,22.90
2022-08-11T02:05:13.133Z,22.90
2022-08-11T02:08:50.812Z,22.80
2022-08-11T02:12:37.578Z,22.90
2022-08-11T02:16:18.128Z,22.80
2022-08-11T02:20:22.422Z,22.70
2022-08-11T02:24:05.419Z,22.70
2022-08-11T02:27:44.157Z,22.70
2022-08-11T02:32:17.183Z,22.70
2022-08-11T02:35:27.912Z,22.60
2022-08-11T02:39:01.728Z,22.60
2022-08-11T02:42:38.941Z,22.50
2022-08-11T02:46:22.044Z,22.50
2022-08-11T02:50:06.296Z,22.40
2022-08-11T02:53:45.138Z,22.30
2022-08-11T02:57:28.937Z,22.30
2022-08-11T03:01:04.113Z,22.20
2022-08-11T03:04:39.769Z,22.20
2022-08-11T03:08:19.890Z,22.10
2022-08-11T03:12:16.829Z,22.10
2022-08-11T03:16:07.962Z,22.10
2022-08-11T03:19:47.475Z,22.00
2022-08-11T03:23:26.865Z,21.90
2022-08-11T03:27:08.406Z,21.90
2022-08-11T03:30:44.400Z,21.80
2022-08-11T03:34:12.666Z,21.80
2022-08-11T03:37:52.255Z,21.70
2022-08-11T03:42:01.363Z,21.70
2022-08-11T03:45:41.161Z,21.60
2022-08-11T03:49:32.220Z,21.60
2022-08-11T03:53:15.554Z,21.60
2022-08-11T03:57:39.621Z,21.60
2022-08-11T04:01:52.913Z,21.50
2022-08-11T04:06:07.277Z,21.60
2022-08-11T04:10:38.029Z,21.50
2022-08-11T04:15:11.767Z,21.50
2022-08-11T04:19:30.920Z,21.50
2022-08-11T04:24:37.229Z,21.50
2022-08-11T04:28:29.253Z,21.40
2022-08-11T04:32:27.947Z,21.40
2022-08-11T04:36:10.862Z,21.30
2022-08-11T04:40:01.070Z,21.40
2022-08-11T04:44:21.413Z,21.40
2022-08-11T04:48:43.918Z,21.40
2022-08-11T04:52:53.011Z,21.40
2022-08-11T04:56:39.179Z,21.70
2022-08-11T05:00:34.474Z,22.10
2022-08-11T05:05:04.834Z,22.60
2022-08-11T05:09:04.934Z,23.20
2022-08-11T05:12:42.224Z,23.90
2022-08-11T05:16:32.232Z,24.50
2022-08-11T05:20:13.660Z,25.10
2022-08-11T05:24:00.763Z,25.60
2022-08-11T05:27:51.987Z,26.20
2022-08-11T05:31:38.374Z,26.70
2022-08-11T05:35:07.435Z,27.20
2022-08-11T05:38:55.732Z,27.50
2022-08-11T05:42:42.035Z,27.90
2022-08-11T05:46:25.680Z,28.30
2022-08-11T05:50:13.743Z,28.00
2022-08-11T05:54:29.039Z,29.10
2022-08-11T05:57:58.386Z,29.60
2022-08-11T06:01:28.625Z,30.00
2022-08-11T06:04:59.839Z,30.50
2022-08-11T06:08:31.779Z,31.00
2022-08-11T06:12:01.563Z,31.60
2022-08-11T06:15:27.964Z,32.30
2022-08-11T06:18:52.062Z,32.80
2022-08-11T06:22:23.836Z,33.30
2022-08-11T06:25:49.529Z,33.90
2022-08-11T06:29:18.547Z,34.50
2022-08-11T06:32:46.174Z,34.90
2022-08-11T06:36:23.596Z,35.40
2022-08-11T06:39:59.420Z,35.70
2022-08-11T06:43:27.126Z,36.20
2022-08-11T06:46:55.926Z,36.60
2022-08-11T06:50:40.285Z,36.90
2022-08-11T06:54:05.965Z,37.30
2022-08-11T06:57:49.344Z,37.60
2022-08-11T07:01:19.990Z,37.90
2022-08-11T07:04:52.843Z,38.20
2022-08-11T07:09:14.428Z,38.40
2022-08-11T07:13:08.319Z,38.80
2022-08-11T07:16:35.663Z,39.10
2022-08-11T07:20:21.314Z,39.30
2022-08-11T07:24:02.893Z,39.50
2022-08-11T07:27:55.608Z,39.70
2022-08-11T07:31:30.860Z,40.00
2022-08-11T07:35:03.618Z,40.30
2022-08-11T07:38:47.491Z,40.50
2022-08-11T07:42:16.857Z,40.60
2022-08-11T07:46:06.229Z,40.90
2022-08-11T07:49:53.185Z,40.90
2022-08-11T07:53:18.997Z,41.00
2022-08-11T07:56:54.784Z,41.10
2022-08-11T08:00:38.138Z,41.20
2022-08-11T08:04:20.156Z,41.30
2022-08-11T08:08:02.840Z,41.40
2022-08-11T08:11:45.189Z,41.50
2022-08-11T08:15:29.544Z,41.70
2022-08-11T08:18:53.549Z,41.80
2022-08-11T08:22:38.817Z,41.90
2022-08-11T08:26:28.809Z,42.00
2022-08-11T08:30:10.529Z,42.10
2022-08-11T08:33:34.433Z,42.00
2022-08-11T08:36:59.261Z,41.90
2022-08-11T08:40:22.804Z,41.90
2022-08-11T08:43:53.062Z,41.80
2022-08-11T08:47:43.041Z,41.80
2022-08-11T08:51:58.748Z,41.90
2022-08-11T08:55:20.220Z,41.90
2022-08-11T08:58:51.565Z,41.80
2022-08-11T09:02:16.128Z,41.70
2022-08-11T09:05:40.212Z,41.50
2022-08-11T09:09:07.340Z,41.30
2022-08-11T09:12:35.696Z,41.20
2022-08-11T09:16:04.659Z,41.10
2022-08-11T09:19:28.386Z,41.10
2022-08-11T09:27:02.938Z,40.80
2022-08-11T09:30:28.293Z,40.70
2022-08-11T09:33:56.186Z,40.70
2022-08-11T09:37:55.497Z,40.70
2022-08-11T09:41:20.183Z,40.60
2022-08-11T09:44:50.504Z,40.60
2022-08-11T09:48:14.680Z,40.70
2022-08-11T09:51:39.966Z,40.80
2022-08-11T09:55:11.019Z,40.90
2022-08-11T09:58:42.053Z,41.00
2022-08-11T10:02:10.808Z,41.10
2022-08-11T10:05:53.198Z,41.20
2022-08-11T10:09:24.325Z,41.20
2022-08-11T10:12:53.136Z,41.20
2022-08-11T10:16:18.940Z,41.20
2022-08-11T10:20:04.269Z,41.10
2022-08-11T10:24:01.365Z,41.10
2022-08-11T10:27:55.199Z,41.10
2022-08-11T10:31:57.800Z,41.10
2022-08-11T10:35:21.292Z,41.20
2022-08-11T10:38:50.315Z,41.20
2022-08-11T10:42:55.286Z,41.20
2022-08-11T10:46:35.935Z,41.20
2022-08-11T10:50:18.491Z,41.30
2022-08-11T10:54:03.342Z,41.30
2022-08-11T10:58:04.910Z,41.20
2022-08-11T11:01:36.540Z,40.90
2022-08-11T11:05:09.383Z,40.70
2022-08-11T11:08:52.876Z,40.60
2022-08-11T11:12:42.085Z,40.60
2022-08-11T11:16:23.741Z,40.60
2022-08-11T11:19:54.466Z,40.50
2022-08-11T11:23:24.715Z,40.60
2022-08-11T11:27:00.865Z,40.70
2022-08-11T11:30:33.724Z,40.80
2022-08-11T11:34:18.432Z,40.80
2022-08-11T11:38:03.622Z,40.70
2022-08-11T11:41:29.571Z,40.60
2022-08-11T11:44:56.056Z,40.60
2022-08-11T11:48:20.670Z,40.50
2022-08-11T11:51:50.149Z,40.50
2022-08-11T11:55:15.911Z,40.50
2022-08-11T11:58:59.072Z,40.50
2022-08-11T12:02:23.241Z,40.60
2022-08-11T12:05:48.130Z,40.50
2022-08-11T12:09:20.902Z,40.50
2022-08-11T12:13:06.512Z,40.40
2022-08-11T12:16:36.124Z,40.40
2022-08-11T12:20:01.762Z,40.20
2022-08-11T12:23:43.487Z,40.10
2022-08-11T12:27:24.005Z,40.00
2022-08-11T12:30:54.298Z,40.00
2022-08-11T12:34:19.244Z,39.90
2022-08-11T12:37:46.667Z,39.90
2022-08-11T12:41:30.190Z,39.90
2022-08-11T12:45:14.225Z,39.90
2022-08-11T12:49:10.931Z,39.80
2022-08-11T12:52:45.000Z,38.40
2022-08-11T12:56:28.416Z,39.70
2022-08-11T13:00:10.642Z,39.60
2022-08-11T13:03:56.830Z,39.50
2022-08-11T13:07:22.229Z,39.30
2022-08-11T13:11:05.394Z,39.10
2022-08-11T13:14:33.022Z,39.00
2022-08-11T13:17:57.034Z,38.90
2022-08-11T13:21:22.503Z,39.00
2022-08-11T13:24:50.075Z,39.00
2022-08-11T13:28:14.187Z,38.80
2022-08-11T13:31:38.272Z,38.70
2022-08-11T13:35:02.015Z,38.50
2022-08-11T13:38:27.610Z,38.30
2022-08-11T13:41:56.535Z,38.10
2022-08-11T13:45:24.343Z,37.90
2022-08-11T13:48:49.234Z,37.80
2022-08-11T13:52:16.566Z,37.70
2022-08-11T13:55:51.786Z,37.60
2022-08-11T13:59:22.983Z,37.50
2022-08-11T14:02:55.681Z,37.30
2022-08-11T14:06:22.735Z,37.30
2022-08-11T14:09:54.014Z,37.10
2022-08-11T14:13:42.397Z,36.90
2022-08-11T14:17:36.068Z,36.70
2022-08-11T14:21:24.489Z,36.30
2022-08-11T14:24:49.670Z,36.10
2022-08-11T14:28:29.717Z,35.90
2022-08-11T14:32:02.373Z,35.80
2022-08-11T14:35:29.569Z,35.70
2022-08-11T14:38:55.462Z,35.60
2022-08-11T14:42:39.145Z,35.40
2022-08-11T14:46:20.514Z,35.20
2022-08-11T14:49:58.070Z,35.10
2022-08-11T14:53:29.941Z,34.90
2022-08-11T14:56:59.869Z,34.60
2022-08-11T15:00:24.397Z,34.50
2022-08-11T15:04:04.367Z,34.30
2022-08-11T15:07:33.701Z,34.20
2022-08-11T15:10:58.622Z,34.20
2022-08-11T15:14:36.492Z,34.20
2022-08-11T15:18:05.060Z,34.10
2022-08-11T15:21:46.235Z,34.00
2022-08-11T15:25:09.933Z,33.90
2022-08-11T15:29:00.717Z,33.80
2022-08-11T15:32:44.792Z,33.70
2022-08-11T15:36:29.125Z,33.60
2022-08-11T15:40:31.183Z,33.50
2022-08-11T15:44:15.795Z,33.50
2022-08-11T15:47:47.171Z,33.40
2022-08-11T15:51:25.183Z,33.30
2022-08-11T15:54:51.091Z,33.30
2022-08-11T15:58:35.049Z,33.20
2022-08-11T16:02:20.921Z,33.10
2022-08-11T16:05:53.054Z,33.00
2022-08-11T16:09:24.605Z,33.00
2022-08-11T16:13:22.448Z,32.90
2022-08-11T16:16:46.762Z,32.90
2022-08-11T16:20:15.272Z,32.80
2022-08-11T16:23:41.550Z,32.80
2022-08-11T16:27:14.043Z,32.80
2022-08-11T16:30:44.108Z,32.80
2022-08-11T16:34:30.499Z,32.70
2022-08-11T16:38:14.750Z,32.60
2022-08-11T16:41:59.093Z,32.50
2022-08-11T16:45:41.323Z,32.50
2022-08-11T16:49:08.572Z,32.40
2022-08-11T16:52:32.147Z,32.40
2022-08-11T16:56:02.921Z,32.30
2022-08-11T16:59:33.195Z,32.30
2022-08-11T17:03:19.975Z,32.20
2022-08-11T17:07:23.629Z,32.20
2022-08-11T17:11:11.595Z,32.20
2022-08-11T17:14:44.641Z,32.10
2022-08-11T17:18:34.149Z,32.00
2022-08-11T17:22:15.794Z,32.00
2022-08-11T17:26:00.426Z,31.90
2022-08-11T17:29:29.890Z,31.80
2022-08-11T17:33:12.290Z,31.70
2022-08-11T17:36:43.145Z,31.70
2022-08-11T17:40:14.610Z,31.70
2022-08-11T17:43:59.622Z,31.60
2022-08-11T17:47:42.208Z,31.60
2022-08-11T17:51:11.502Z,31.50
2022-08-11T17:54:56.182Z,31.40
2022-08-11T17:58:40.136Z,31.40
2022-08-11T18:02:21.104Z,31.30
2022-08-11T18:06:00.851Z,31.30
2022-08-11T18:09:43.918Z,31.20
2022-08-11T18:13:26.482Z,31.10
2022-08-11T18:17:08.165Z,31.10
2022-08-11T18:20:50.808Z,31.00
2022-08-11T18:24:34.623Z,30.90
2022-08-11T18:28:19.656Z,30.80
2022-08-11T18:32:06.973Z,30.70
2022-08-11T18:35:48.675Z,30.60
2022-08-11T18:39:32.617Z,30.50
2022-08-11T18:43:25.029Z,30.40
2022-08-11T18:47:12.162Z,30.30
2022-08-11T18:51:29.621Z,30.20
2022-08-11T18:55:03.188Z,30.00
2022-08-11T18:58:50.568Z,29.90
2022-08-11T19:02:49.441Z,29.80
2022-08-11T19:06:39.882Z,29.70
2022-08-11T19:10:24.602Z,29.60
2022-08-11T19:14:08.854Z,29.50
2022-08-11T19:17:54.500Z,29.40
2022-08-11T19:21:38.189Z,29.30
2022-08-11T19:25:25.298Z,29.20
2022-08-11T19:30:07.316Z,29.00
2022-08-11T19:33:14.028Z,28.90
2022-08-11T19:36:56.796Z,28.80
2022-08-11T19:40:39.376Z,28.70
2022-08-11T19:44:23.805Z,28.70
2022-08-11T19:48:30.539Z,28.60
2022-08-11T19:52:09.597Z,28.60
2022-08-11T19:55:51.579Z,28.50
2022-08-11T19:59:35.449Z,28.40
2022-08-11T20:03:18.239Z,28.30
2022-08-11T20:07:00.189Z,28.20
2022-08-11T20:10:42.146Z,28.10
2022-08-11T20:14:26.951Z,28.00
2022-08-11T20:18:10.837Z,28.00
2022-08-11T20:21:56.225Z,27.90
2022-08-11T20:25:41.195Z,27.80
2022-08-11T20:29:25.210Z,27.60
2022-08-11T20:33:10.487Z,27.60
2022-08-11T20:36:55.028Z,27.50
2022-08-11T20:40:39.573Z,27.40
2022-08-11T20:44:22.681Z,27.40
2022-08-11T20:48:05.863Z,27.30
2022-08-11T20:51:48.811Z,27.30
2022-08-11T20:55:52.244Z,27.20
2022-08-11T20:59:52.809Z,27.20
2022-08-11T21:03:45.271Z,27.10
2022-08-11T21:07:44.258Z,27.00
2022-08-11T21:11:39.436Z,27.00
2022-08-11T21:15:47.438Z,26.90
2022-08-11T21:20:01.259Z,26.90
2022-08-11T21:23:38.010Z,26.80
2022-08-11T21:27:24.856Z,26.70
2022-08-11T21:31:09.432Z,26.70
2022-08-11T21:34:52.235Z,26.60
2022-08-11T21:38:36.643Z,26.60
2022-08-11T21:42:19.736Z,26.50
2022-08-11T21:46:04.437Z,26.50
2022-08-11T21:49:48.146Z,26.40
2022-08-11T21:53:30.567Z,26.40
2022-08-11T21:57:14.598Z,26.30
2022-08-11T22:00:56.233Z,26.30
2022-08-11T22:04:39.723Z,26.30
2022-08-11T22:08:21.735Z,26.20
2022-08-11T22:12:30.171Z,26.20
2022-08-11T22:16:05.347Z,26.20
2022-08-11T22:19:47.881Z,26.20
2022-08-11T22:23:30.587Z,26.30
2022-08-11T22:27:17.777Z,26.20
2022-08-11T22:30:58.964Z,26.20
2022-08-11T22:34:52.750Z,26.30
2022-08-11T22:38:37.495Z,26.30
2022-08-11T22:42:18.825Z,26.30
2022-08-11T22:46:15.223Z,26.30
2022-08-11T22:50:00.626Z,26.20
2022-08-11T22:53:57.287Z,26.30
2022-08-11T22:58:00.482Z,26.20
2022-08-11T23:01:57.453Z,26.20
2022-08-11T23:05:41.486Z,26.10
2022-08-11T23:09:24.132Z,26.10
2022-08-11T23:13:05.207Z,26.10
2022-08-11T23:16:48.849Z,26.00
2022-08-11T23:20:38.849Z,26.00
2022-08-11T23:24:26.363Z,26.00
2022-08-11T23:28:07.372Z,25.90
2022-08-11T23:31:52.781Z,25.90
2022-08-11T23:35:39.593Z,25.90
2022-08-11T23:39:22.298Z,25.90
2022-08-11T23:43:04.666Z,25.80
2022-08-11T23:46:46.423Z,25.70
2022-08-11T23:50:29.603Z,25.60
2022-08-11T23:54:11.158Z,25.50
2022-08-11T23:57:53.341Z,25.40
